Time;durP1;ratioP1;P1;durP2;ratioP2;P2;SDS_P1;SDS_P2;PMS_P1;PMS_P2;Temp;Humidity;BMP_temperature;BMP_pressure;BME280_temperature;BME280_humidity;BME280_pressure;Samples;Min_cycle;Max_cycle;Signal;HPM_P1;HPM_P2
2022/07/22 00:02:21;;;;;;;5.20;4.43;;;;;;;23.82;49.49;100437.25;5013666;28;20426;-76
2022/07/22 00:04:46;;;;;;;4.40;4.00;;;;;;;23.77;50.16;100435.28;5013533;28;20112;-76
2022/07/22 00:07:12;;;;;;;5.78;4.90;;;;;;;23.74;49.92;100436.47;5013735;28;20030;-77
2022/07/22 00:09:38;;;;;;;5.00;4.50;;;;;;;23.69;50.28;100437.44;5013773;28;20025;-77
2022/07/22 00:12:03;;;;;;;5.55;4.95;;;;;;;23.66;50.14;100439.38;5013350;28;20056;-77
2022/07/22 00:14:29;;;;;;;6.90;5.25;;;;;;;23.59;50.45;100446.00;5013677;28;20468;-77
2022/07/22 00:16:54;;;;;;;6.65;4.60;;;;;;;23.60;50.87;100443.84;5013273;28;20129;-77
2022/07/22 00:19:20;;;;;;;5.40;4.88;;;;;;;23.58;50.26;100437.81;5013500;28;20026;-75
2022/07/22 00:21:45;;;;;;;7.28;4.80;;;;;;;23.53;50.92;100436.59;5013761;28;20360;-76
2022/07/22 00:24:10;;;;;;;7.15;4.95;;;;;;;23.49;50.57;100438.34;4999655;28;20386;-76
2022/07/22 00:26:36;;;;;;;7.10;5.28;;;;;;;23.42;51.93;100442.03;4999615;28;20030;-76
2022/07/22 00:29:01;;;;;;;6.68;4.88;;;;;;;23.39;51.58;100443.97;5017515;28;20032;-76
2022/07/22 00:31:27;;;;;;;5.85;4.97;;;;;;;23.41;51.64;100447.06;5017097;28;20030;-77
2022/07/22 00:33:52;;;;;;;7.47;4.82;;;;;;;23.40;52.15;100448.47;5015944;28;20037;-76
2022/07/22 00:36:18;;;;;;;7.40;4.90;;;;;;;23.37;52.42;100443.78;5015516;28;20531;-75
2022/07/22 00:38:43;;;;;;;6.45;5.03;;;;;;;23.34;51.98;100439.88;5017187;28;20079;-75
2022/07/22 00:41:09;;;;;;;9.45;5.18;;;;;;;23.30;52.19;100429.97;5017427;28;20506;-76
2022/07/22 00:43:53;;;;;;;9.18;6.03;;;;;;;23.30;52.30;100427.06;5016992;28;20076;-76
2022/07/22 00:46:18;;;;;;;6.53;4.55;;;;;;;23.24;52.18;100433.06;5015620;28;20025;-76
2022/07/22 00:48:44;;;;;;;7.88;5.10;;;;;;;23.16;52.31;100428.56;5016703;28;20036;-75
2022/07/22 00:51:09;;;;;;;6.45;4.82;;;;;;;23.10;52.27;100425.84;5015466;28;20022;-75
2022/07/22 00:53:35;;;;;;;5.38;4.78;;;;;;;23.05;52.66;100429.69;5016860;28;20046;-76
2022/07/22 00:56:02;;;;;;;5.65;4.68;;;;;;;22.98;52.90;100435.50;5016728;28;20033;-76
2022/07/22 00:58:27;;;;;;;8.30;4.80;;;;;;;22.93;53.31;100440.94;5016022;28;20053;-76
2022/07/22 01:00:52;;;;;;;10.85;4.90;;;;;;;22.91;53.50;100445.78;5014707;28;20352;-76
2022/07/22 01:03:18;;;;;;;5.68;4.68;;;;;;;22.84;53.79;100447.28;5012995;28;20029;-76
2022/07/22 01:05:43;;;;;;;6.85;5.55;;;;;;;22.83;53.72;100460.28;5014348;28;20026;-76
2022/07/22 01:08:09;;;;;;;7.10;5.07;;;;;;;22.78;54.39;100458.31;5012986;28;20026;-76
2022/07/22 01:10:34;;;;;;;10.07;5.03;;;;;;;22.68;54.21;100454.38;4996688;28;20029;-76
2022/07/22 01:13:00;;;;;;;6.72;4.82;;;;;;;22.63;54.78;100472.03;4996867;28;20493;-76
2022/07/22 01:15:25;;;;;;;6.00;5.28;;;;;;;22.58;54.26;100472.97;5013198;28;20103;-76
2022/07/22 01:17:50;;;;;;;7.70;5.22;;;;;;;22.49;54.93;100466.31;4998071;28;20100;-76
2022/07/22 01:20:16;;;;;;;9.40;6.32;;;;;;;22.45;55.85;100474.66;5012760;28;20088;-75
2022/07/22 01:22:41;;;;;;;7.53;5.45;;;;;;;22.40;55.62;100471.88;4996376;28;20022;-75
2022/07/22 01:25:07;;;;;;;6.43;5.25;;;;;;;22.32;55.78;100468.91;5014136;28;20022;-76
2022/07/22 01:27:32;;;;;;;8.05;6.00;;;;;;;22.27;56.48;100475.69;4996428;28;20025;-76
2022/07/22 01:29:58;;;;;;;5.82;5.22;;;;;;;22.22;56.38;100473.72;5014152;28;20018;-76
2022/07/22 01:32:23;;;;;;;6.65;5.22;;;;;;;22.19;56.45;100476.97;5012315;28;20491;-76
2022/07/22 01:34:49;;;;;;;5.68;5.07;;;;;;;22.15;56.73;100474.41;5013657;28;20050;-76
2022/07/22 01:37:14;;;;;;;6.45;5.30;;;;;;;22.09;56.82;100479.59;5015773;28;20467;-76
2022/07/22 01:39:39;;;;;;;8.00;5.45;;;;;;;22.07;56.96;100491.03;5014627;28;20075;-76
2022/07/22 01:42:05;;;;;;;7.63;6.55;;;;;;;22.01;56.97;100494.09;5014582;28;20025;-76
2022/07/22 01:44:31;;;;;;;7.00;5.38;;;;;;;21.98;57.06;100498.13;5015643;28;20030;-75
2022/07/22 01:46:58;;;;;;;6.10;5.43;;;;;;;21.94;56.98;100496.91;5014441;28;20153;-76
2022/07/22 01:49:24;;;;;;;7.13;5.68;;;;;;;21.87;57.12;100477.28;5014340;28;20076;-75
2022/07/22 01:51:49;;;;;;;8.18;5.10;;;;;;;21.84;57.19;100473.38;5014388;28;20022;-76
2022/07/22 01:54:15;;;;;;;9.27;6.65;;;;;;;21.80;57.35;100477.97;5015412;28;20026;-76
2022/07/22 01:56:40;;;;;;;7.90;5.82;;;;;;;21.77;57.64;100479.91;5014345;28;20093;-76
2022/07/22 01:59:07;;;;;;;6.93;6.05;;;;;;;21.74;57.90;100477.34;5015241;28;20483;-75
2022/07/22 02:01:32;;;;;;;8.15;5.70;;;;;;;21.63;58.02;100458.06;5015508;28;20471;-76
2022/07/22 02:03:58;;;;;;;10.05;6.60;;;;;;;21.68;58.27;100477.50;5015550;28;20025;-76
2022/07/22 02:06:23;;;;;;;7.90;5.95;;;;;;;21.64;58.19;100480.75;5015462;28;20474;-76
2022/07/22 02:08:48;;;;;;;6.80;6.10;;;;;;;21.63;58.72;100493.72;5014228;28;20052;-76
2022/07/22 02:11:14;;;;;;;6.60;5.05;;;;;;;21.62;59.92;100500.91;5013865;28;20017;-76
2022/07/22 02:13:39;;;;;;;8.32;6.07;;;;;;;21.62;60.01;100506.72;5015097;28;20188;-75
2022/07/22 02:16:04;;;;;;;8.38;5.65;;;;;;;21.69;59.52;100519.78;5014764;28;20042;-76
2022/07/22 02:18:30;;;;;;;7.85;6.20;;;;;;;21.62;59.61;100520.50;5015045;28;20072;-77
2022/07/22 02:20:55;;;;;;;10.05;6.00;;;;;;;21.59;59.72;100522.38;5015084;28;20030;-76
2022/07/22 02:23:21;;;;;;;8.73;6.22;;;;;;;21.57;59.61;100524.31;5015247;28;20467;-76
2022/07/22 02:25:46;;;;;;;9.63;6.82;;;;;;;21.56;59.75;100529.34;5014970;28;20521;-75
2022/07/22 02:28:11;;;;;;;10.73;6.88;;;;;;;21.56;60.18;100531.47;5013630;28;20076;-76
2022/07/22 02:30:37;;;;;;;8.82;6.97;;;;;;;21.55;60.32;100539.41;5013874;28;20022;-76
2022/07/22 02:33:03;;;;;;;7.10;5.53;;;;;;;21.57;60.85;100544.66;5014747;28;20069;-77
2022/07/22 02:35:28;;;;;;;7.95;5.70;;;;;;;21.61;60.82;100565.47;5013566;28;20387;-76
2022/07/22 02:37:53;;;;;;;11.32;6.80;;;;;;;21.67;60.65;100581.44;5013315;28;20018;-76
2022/07/22 02:40:19;;;;;;;8.65;5.47;;;;;;;21.85;60.00;100594.25;5013533;28;20033;-76
2022/07/22 02:42:44;;;;;;;8.25;5.28;;;;;;;22.08;59.14;100618.53;5014731;28;20033;-75
2022/07/22 02:45:10;;;;;;;7.70;6.05;;;;;;;22.31;58.70;100630.44;4996889;28;20018;-77
2022/07/22 02:47:45;;;;;;;12.20;6.10;;;;;;;22.44;58.06;100644.94;5013465;28;20443;-76
2022/07/22 02:50:10;;;;;;;12.00;7.10;;;;;;;22.56;57.83;100648.34;5014638;28;20018;-75
2022/07/22 02:52:36;;;;;;;7.90;5.15;;;;;;;22.64;57.56;100648.41;5014593;28;20522;-76
2022/07/22 02:55:01;;;;;;;7.47;6.35;;;;;;;22.73;57.44;100644.97;5014780;28;20032;-77
2022/07/22 02:57:27;;;;;;;9.57;6.25;;;;;;;22.84;57.28;100641.75;5014270;28;20056;-76
2022/07/22 02:59:52;;;;;;;7.30;5.03;;;;;;;22.91;56.74;100646.91;5014334;28;20490;-77
2022/07/22 03:02:18;;;;;;;6.75;5.50;;;;;;;22.97;57.02;100641.69;5014341;28;20061;-77
2022/07/22 03:04:43;;;;;;;7.75;5.70;;;;;;;23.03;56.46;100632.78;5013226;28;20087;-77
2022/07/22 03:07:08;;;;;;;12.38;5.97;;;;;;;23.03;56.90;100639.41;5014270;28;20408;-75
2022/07/22 03:09:34;;;;;;;8.65;5.80;;;;;;;23.10;57.36;100635.75;5012953;28;20037;-76
2022/07/22 03:11:59;;;;;;;6.43;5.82;;;;;;;23.19;56.68;100635.22;5014554;28;20459;-76
2022/07/22 03:14:24;;;;;;;7.40;5.85;;;;;;;23.19;57.05;100611.13;5014349;28;20026;-76
2022/07/22 03:16:50;;;;;;;9.07;6.05;;;;;;;23.15;57.21;100588.16;5012523;28;20429;-76
2022/07/22 03:19:15;;;;;;;9.63;5.85;;;;;;;23.09;58.09;100575.88;5012611;28;20165;-76
2022/07/22 03:21:41;;;;;;;7.20;6.07;;;;;;;23.05;56.97;100572.56;5014256;28;20030;-77
2022/07/22 03:24:06;;;;;;;7.70;5.90;;;;;;;22.98;58.04;100567.47;5012964;28;20034;-77
2022/07/22 03:26:33;;;;;;;6.32;5.60;;;;;;;22.87;58.48;100556.91;4996376;28;20025;-76
2022/07/22 03:29:00;;;;;;;9.00;6.10;;;;;;;22.77;58.70;100552.13;5013812;28;20518;-76
2022/07/22 03:31:27;;;;;;;8.95;5.65;;;;;;;22.67;59.27;100539.47;5013951;28;20021;-76
2022/07/22 03:33:52;;;;;;;9.02;5.70;;;;;;;22.74;59.36;100527.84;5013794;28;20566;-76
2022/07/22 03:36:17;;;;;;;11.00;5.75;;;;;;;22.72;59.73;100523.94;5013883;28;20065;-76
2022/07/22 03:38:44;;;;;;;18.08;6.15;;;;;;;22.66;60.94;100515.38;5014031;28;20034;-76
2022/07/22 03:41:09;;;;;;;7.78;5.93;;;;;;;22.62;61.30;100514.94;5013654;28;20029;-75
2022/07/22 03:43:36;;;;;;;9.07;6.68;;;;;;;22.61;61.27;100510.50;5013791;28;20134;-77
2022/07/22 03:46:02;;;;;;;10.77;6.38;;;;;;;22.52;62.29;100513.91;5013655;28;20029;-76
2022/07/22 03:48:30;;;;;;;9.43;5.85;;;;;;;22.42;63.00;100498.31;5013959;28;20025;-77
2022/07/22 03:50:55;;;;;;;12.10;7.25;;;;;;;22.36;63.77;100488.97;5012448;28;20022;-77
2022/07/22 03:53:21;;;;;;;13.30;6.72;;;;;;;22.33;64.64;100496.69;5013752;28;20030;-75
2022/07/22 03:55:47;;;;;;;13.27;7.68;;;;;;;22.29;65.99;100489.66;5014004;28;20056;-77
2022/07/22 03:58:15;;;;;;;12.75;7.82;;;;;;;22.30;66.45;100476.69;5016485;28;20033;-77
2022/07/22 04:00:41;;;;;;;10.82;7.10;;;;;;;22.24;66.33;100478.97;5017080;28;20483;-76
2022/07/22 04:03:07;;;;;;;14.00;7.97;;;;;;;22.20;67.22;100484.38;5017791;28;20045;-77
2022/07/22 04:05:41;;;;;;;16.83;7.93;;;;;;;22.17;66.80;100485.53;5015975;28;20038;-77
2022/07/22 04:08:06;;;;;;;12.40;7.43;;;;;;;22.18;66.41;100475.41;5017800;28;20057;-77
2022/07/22 04:10:33;;;;;;;15.30;7.53;;;;;;;22.20;67.21;100478.53;5017814;28;20025;-77
2022/07/22 04:12:58;;;;;;;10.80;7.22;;;;;;;22.25;66.80;100477.59;5000144;28;20026;-77
2022/07/22 04:15:24;;;;;;;16.08;8.27;;;;;;;22.30;66.65;100479.59;5017107;28;20045;-77
2022/07/22 04:17:51;;;;;;;11.98;8.02;;;;;;;22.39;66.51;100474.03;5017725;28;20057;-77
2022/07/22 04:20:17;;;;;;;9.98;7.43;;;;;;;22.43;66.56;100471.50;5016197;28;20058;-77
2022/07/22 04:22:43;;;;;;;11.98;8.38;;;;;;;22.49;66.34;100463.41;5017321;28;20111;-77
2022/07/22 04:25:11;;;;;;;10.27;8.43;;;;;;;22.59;65.53;100459.97;5016375;28;20046;-77
2022/07/22 04:27:39;;;;;;;10.45;7.95;;;;;;;22.73;66.02;100456.34;5017184;28;20025;-77
2022/07/22 04:30:05;;;;;;;13.77;7.57;;;;;;;22.84;64.86;100461.06;5017159;28;20026;-77
2022/07/22 04:32:32;;;;;;;16.02;8.10;;;;;;;22.94;64.63;100450.44;5015530;28;20523;-77
2022/07/22 04:34:59;;;;;;;14.85;9.15;;;;;;;22.99;64.72;100437.84;5015693;28;20073;-78
2022/07/22 04:37:24;;;;;;;14.43;8.07;;;;;;;23.07;64.20;100441.56;5016901;28;20026;-77
2022/07/22 04:39:51;;;;;;;14.20;8.20;;;;;;;23.12;64.13;100448.56;5015643;28;20036;-77
2022/07/22 04:42:23;;;;;;;10.25;7.63;;;;;;;23.18;63.18;100449.16;5010156;28;20096;-77
2022/07/22 04:44:49;;;;;;;;;;;;;;;23.24;63.16;100453.47;4992869;28;20038;-76
2022/07/22 04:47:15;;;;;;;14.98;7.47;;;;;;;23.27;62.56;100461.06;5015913;28;19955;-77
2022/07/22 04:49:41;;;;;;;12.95;8.43;;;;;;;23.29;62.73;100454.66;5014463;28;20065;-77
2022/07/22 04:52:08;;;;;;;10.02;8.15;;;;;;;23.30;62.97;100453.28;5015866;28;20033;-77
2022/07/22 04:54:35;;;;;;;9.40;8.38;;;;;;;23.28;63.59;100458.91;5014270;28;20042;-77
2022/07/22 04:57:00;;;;;;;13.70;9.32;;;;;;;23.30;63.53;100459.13;4998019;28;20030;-78
2022/07/22 04:59:27;;;;;;;10.43;8.32;;;;;;;23.35;63.09;100461.09;5016275;28;20544;-78
2022/07/22 05:02:07;;;;;;;10.02;8.45;;;;;;;23.41;62.87;100466.75;5016629;28;20030;-78
2022/07/22 05:04:34;;;;;;;11.27;8.45;;;;;;;23.41;62.45;100476.25;5015087;28;20117;-78
2022/07/22 05:07:02;;;;;;;10.77;7.40;;;;;;;23.43;62.04;100482.28;5015208;28;20478;-76
2022/07/22 05:09:28;;;;;;;10.80;8.63;;;;;;;23.34;62.87;100469.06;5016669;28;20504;-77
2022/07/22 05:11:54;;;;;;;14.30;8.20;;;;;;;23.39;63.18;100484.81;5015118;28;20041;-76
2022/07/22 05:14:21;;;;;;;11.98;7.72;;;;;;;23.48;62.37;100489.31;5015197;28;20112;-76
2022/07/22 05:16:47;;;;;;;11.73;8.52;;;;;;;23.63;62.31;100486.44;5017199;28;20046;-76
2022/07/22 05:19:12;;;;;;;20.48;9.55;;;;;;;23.83;61.76;100485.50;5017265;28;20037;-76
2022/07/22 05:21:39;;;;;;;11.15;7.63;;;;;;;24.12;61.22;100491.94;4999386;28;20034;-76
2022/07/22 05:24:07;;;;;;;21.77;9.95;;;;;;;24.39;60.40;100498.19;5012803;28;20053;-77
2022/07/22 05:26:33;;;;;;;17.50;9.65;;;;;;;24.62;59.45;100505.53;4998846;28;20022;-76
2022/07/22 05:28:59;;;;;;;17.20;8.52;;;;;;;24.86;58.89;100510.00;5015602;28;20038;-75
2022/07/22 05:31:25;;;;;;;13.23;8.30;;;;;;;25.02;58.23;100505.66;5015125;28;20029;-78
2022/07/22 05:33:51;;;;;;;11.82;7.60;;;;;;;25.35;57.83;100506.47;5017532;28;20041;-76
2022/07/22 05:36:18;;;;;;;21.42;8.75;;;;;;;25.76;56.42;100508.03;5016310;28;20030;-79
2022/07/22 05:38:44;;;;;;;12.48;8.10;;;;;;;26.14;55.09;100509.91;4998372;28;20117;-80
2022/07/22 05:41:10;;;;;;;10.50;7.85;;;;;;;26.43;54.17;100516.09;4994731;28;20029;-78
2022/07/22 05:43:35;;;;;;;8.27;6.72;;;;;;;26.66;52.07;100514.50;5011304;28;20022;-78
2022/07/22 05:46:00;;;;;;;10.60;7.03;;;;;;;26.84;51.08;100509.44;5012074;28;20080;-78
2022/07/22 05:48:26;;;;;;;13.13;7.55;;;;;;;27.07;50.52;100515.03;4995950;28;20018;-78
2022/07/22 05:50:51;;;;;;;12.32;7.18;;;;;;;27.31;49.96;100517.09;4995899;28;20478;-79
2022/07/22 05:53:17;;;;;;;7.70;6.47;;;;;;;27.44;49.23;100518.91;5012828;28;20021;-79
2022/07/22 05:55:42;;;;;;;9.98;7.07;;;;;;;27.36;49.21;100519.00;5013475;28;20053;-78
2022/07/22 05:58:08;;;;;;;9.55;8.13;;;;;;;26.96;49.68;100524.38;5014462;28;20420;-79
2022/07/22 06:00:34;;;;;;;12.38;7.30;;;;;;;26.81;50.06;100530.41;5014843;28;20030;-79
2022/07/22 06:03:00;;;;;;;18.52;8.05;;;;;;;26.83;51.13;100533.50;5014304;28;20022;-79
2022/07/22 06:05:25;;;;;;;8.60;7.15;;;;;;;26.78;48.94;100538.25;5015416;28;20029;-78
2022/07/22 06:07:50;;;;;;;9.45;6.70;;;;;;;26.87;49.24;100534.63;5015610;28;20022;-79
2022/07/22 06:10:16;;;;;;;13.80;8.50;;;;;;;26.97;48.58;100531.78;5015467;28;20022;-79
2022/07/22 06:12:41;;;;;;;10.00;6.68;;;;;;;27.35;48.40;100538.00;5014345;28;20029;-79
2022/07/22 06:15:07;;;;;;;14.43;6.75;;;;;;;28.73;46.01;100532.34;5015641;28;20511;-79
2022/07/22 06:17:32;;;;;;;16.85;7.03;;;;;;;30.10;42.69;100523.53;5014310;28;20097;-80
2022/07/22 06:19:57;;;;;;;10.85;7.50;;;;;;;30.56;40.48;100523.91;5014682;28;20398;-80
2022/07/22 06:22:23;;;;;;;7.75;6.47;;;;;;;30.56;40.24;100523.16;5015172;28;20080;-81
2022/07/22 06:24:48;;;;;;;8.10;6.97;;;;;;;30.53;39.77;100522.25;5013693;28;20470;-80
2022/07/22 06:27:14;;;;;;;14.07;7.15;;;;;;;30.46;41.07;100516.56;5015252;28;20021;-79
2022/07/22 06:29:40;;;;;;;9.45;6.18;;;;;;;30.47;40.89;100521.03;5014850;28;20026;-79
2022/07/22 06:32:07;;;;;;;11.32;7.65;;;;;;;31.99;38.88;100516.63;5013540;28;20037;-79
2022/07/22 06:34:32;;;;;;;9.77;6.97;;;;;;;34.39;35.40;100506.66;4997065;28;20099;-80
2022/07/22 06:36:58;;;;;;;10.90;6.78;;;;;;;36.88;32.78;100510.16;5013469;28;20535;-80
2022/07/22 06:39:23;;;;;;;7.88;6.95;;;;;;;38.67;28.66;100494.38;5014842;28;20430;-80
2022/07/22 06:41:48;;;;;;;8.75;6.30;;;;;;;39.99;26.26;100487.72;5014914;28;20107;-79
2022/07/22 06:44:14;;;;;;;8.03;6.27;;;;;;;40.55;25.04;100495.41;5014725;28;20494;-79
2022/07/22 06:46:39;;;;;;;6.83;6.23;;;;;;;40.98;24.91;100488.38;5013307;28;20773;-80
2022/07/22 06:49:04;;;;;;;7.13;6.43;;;;;;;42.26;22.54;100491.56;4996839;28;20737;-78
2022/07/22 06:51:30;;;;;;;6.85;6.15;;;;;;;42.50;22.23;100501.13;5014464;28;20087;-79
2022/07/22 06:53:55;;;;;;;10.63;6.80;;;;;;;41.78;22.54;100500.97;4996952;28;20459;-78
2022/07/22 06:56:21;;;;;;;8.07;6.47;;;;;;;40.37;23.33;100503.13;5013135;28;20061;-79
2022/07/22 06:58:46;;;;;;;14.23;6.82;;;;;;;38.86;24.83;100497.34;5014263;28;20033;-79
2022/07/22 07:01:12;;;;;;;9.30;6.78;;;;;;;37.58;26.33;100502.75;5014364;28;20034;-79
2022/07/22 07:03:37;;;;;;;9.27;6.60;;;;;;;37.55;26.54;100507.88;5013340;28;20446;-78
2022/07/22 07:06:03;;;;;;;12.88;6.95;;;;;;;39.44;25.63;100500.09;5012806;28;20040;-79
2022/07/22 07:08:29;;;;;;;6.53;5.65;;;;;;;41.01;23.44;100486.22;5013288;28;20017;-79
2022/07/22 07:10:54;;;;;;;6.55;5.93;;;;;;;42.58;21.84;100494.50;5013005;28;20451;-79
2022/07/22 07:13:19;;;;;;;7.47;5.68;;;;;;;43.43;19.33;100499.91;5014211;28;20037;-80
2022/07/22 07:15:45;;;;;;;7.80;6.20;;;;;;;43.28;19.70;100492.09;5012621;28;20052;-78
2022/07/22 07:18:10;;;;;;;10.98;6.30;;;;;;;43.87;20.14;100493.84;5014122;28;20107;-79
2022/07/22 07:20:37;;;;;;;6.57;5.63;;;;;;;45.46;18.52;100493.47;5015240;28;20041;-75
2022/07/22 07:23:02;;;;;;;5.97;5.32;;;;;;;46.93;17.72;100495.78;4999030;28;20042;-74
2022/07/22 07:25:29;;;;;;;8.32;5.95;;;;;;;48.16;16.23;100492.72;5013696;28;20060;-75
2022/07/22 07:27:56;;;;;;;8.40;6.80;;;;;;;48.71;15.53;100490.19;4998473;28;20030;-76
2022/07/22 07:30:36;;;;;;;10.98;5.88;;;;;;;47.45;15.88;100495.09;5015098;28;20026;-76
2022/07/22 07:33:02;;;;;;;8.82;6.45;;;;;;;46.77;16.68;100503.31;4997151;28;20036;-77
2022/07/22 07:35:28;;;;;;;13.27;6.55;;;;;;;45.73;17.27;100494.44;5014848;28;20032;-76
2022/07/22 07:37:55;;;;;;;6.88;6.15;;;;;;;46.04;16.76;100496.16;5014446;28;20121;-76
2022/07/22 07:40:21;;;;;;;8.20;6.13;;;;;;;47.45;16.76;100495.09;5000592;28;20038;-76
2022/07/22 07:42:47;;;;;;;16.50;6.40;;;;;;;48.39;14.89;100484.28;5005501;28;20395;-76
2022/07/22 07:45:14;;;;;;;9.85;6.07;;;;;;;49.12;14.45;100484.63;5004417;28;20050;-76
2022/07/22 07:48:00;;;;;;;11.90;6.43;;;;;;;50.22;13.79;100475.22;5003848;28;20069;-77
2022/07/22 07:50:26;;;;;;;6.60;5.53;;;;;;;49.97;13.71;100483.09;4990315;28;20038;-77
2022/07/22 07:52:53;;;;;;;10.90;7.03;;;;;;;48.50;14.69;100486.53;5005255;28;20039;-75
2022/07/22 07:55:20;;;;;;;7.03;6.43;;;;;;;47.27;15.52;100489.78;5000990;28;20550;-77
2022/07/22 07:57:49;;;;;;;7.18;6.47;;;;;;;46.50;15.77;100491.88;5011224;28;20116;-75
2022/07/22 08:00:17;;;;;;;8.32;5.97;;;;;;;47.19;16.35;100480.69;4995546;28;20033;-75
2022/07/22 08:02:44;;;;;;;6.30;5.70;;;;;;;48.51;14.51;100472.09;5013165;28;20104;-75
2022/07/22 08:05:09;;;;;;;8.27;6.70;;;;;;;49.87;13.61;100474.09;4995513;28;20033;-76
2022/07/22 08:07:35;;;;;;;6.80;5.95;;;;;;;50.49;13.58;100478.69;4995624;28;20041;-76
2022/07/22 08:10:01;;;;;;;6.90;6.20;;;;;;;51.25;13.29;100473.72;5013139;28;20038;-77
2022/07/22 08:12:27;;;;;;;7.38;6.18;;;;;;;51.80;12.86;100475.81;5012954;28;20037;-75
2022/07/22 08:14:54;;;;;;;6.75;6.15;;;;;;;52.62;11.75;100472.56;5013302;28;20124;-76
2022/07/22 08:17:19;;;;;;;6.45;5.53;;;;;;;52.90;11.88;100468.84;5011412;28;20030;-76
2022/07/22 08:19:45;;;;;;;6.47;5.97;;;;;;;53.59;10.96;100466.34;5013563;28;20099;-76
2022/07/22 08:22:11;;;;;;;6.60;6.00;;;;;;;54.14;10.48;100462.53;5013163;28;20104;-75
2022/07/22 08:24:36;;;;;;;6.43;5.90;;;;;;;54.49;11.47;100466.03;5013152;28;20590;-75
2022/07/22 08:27:04;;;;;;;6.33;5.77;;;;;;;54.82;9.87;100468.81;5013152;28;20499;-77
2022/07/22 08:29:37;;;;;;;10.68;6.32;;;;;;;54.68;10.65;100460.84;5012412;28;20384;-77
2022/07/22 08:32:02;;;;;;;6.30;5.80;;;;;;;54.37;10.99;100475.59;5013299;28;20033;-75
2022/07/22 08:34:28;;;;;;;11.32;6.13;;;;;;;54.35;10.25;100461.09;5011855;28;20155;-75
2022/07/22 08:36:54;;;;;;;9.50;6.10;;;;;;;54.17;10.99;100464.69;5011896;28;20265;-75
2022/07/22 08:39:21;;;;;;;8.27;5.43;;;;;;;54.21;11.04;100457.69;5013574;28;20284;-75
2022/07/22 08:41:47;;;;;;;7.15;5.80;;;;;;;53.29;11.41;100474.75;5013134;28;20164;-75
2022/07/22 08:44:12;;;;;;;8.40;6.15;;;;;;;52.21;11.98;100460.50;4999342;28;20113;-75
2022/07/22 08:46:39;;;;;;;6.22;5.63;;;;;;;51.69;12.21;100466.06;5016822;28;20145;-76
2022/07/22 08:49:06;;;;;;;10.82;6.13;;;;;;;51.46;11.71;100461.94;4998962;28;20121;-75
2022/07/22 08:51:32;;;;;;;8.63;6.40;;;;;;;51.19;12.92;100457.84;5015609;28;20029;-75
2022/07/22 08:53:59;;;;;;;8.55;5.80;;;;;;;50.71;12.13;100465.41;5015580;28;20037;-75
2022/07/22 08:56:27;;;;;;;9.27;5.88;;;;;;;50.58;13.07;100467.91;5016589;28;20034;-75
2022/07/22 08:58:55;;;;;;;9.73;5.75;;;;;;;50.45;12.79;100463.53;5016444;28;20487;-75
2022/07/22 09:01:21;;;;;;;6.43;5.93;;;;;;;50.14;13.49;100460.88;5016415;28;20059;-75
2022/07/22 09:03:52;;;;;;;5.85;5.35;;;;;;;49.67;13.67;100450.72;5016450;28;20026;-75
2022/07/22 09:06:19;;;;;;;19.90;8.05;;;;;;;49.15;14.05;100461.09;5015480;28;20033;-75
2022/07/22 09:08:58;;;;;;;22.00;6.85;;;;;;;48.93;13.67;100453.63;5015343;28;20113;-75
2022/07/22 09:11:32;;;;;;;6.65;5.95;;;;;;;48.29;14.15;100445.63;5015364;28;20105;-76
2022/07/22 09:14:15;;;;;;;9.23;6.18;;;;;;;47.77;14.52;100451.88;5016512;28;20451;-75
2022/07/22 09:16:43;;;;;;;7.05;6.40;;;;;;;47.59;14.66;100452.66;5016069;28;20087;-75
2022/07/22 09:19:15;;;;;;;7.57;5.45;;;;;;;46.98;15.37;100458.69;5016349;28;20057;-73
2022/07/22 09:21:50;;;;;;;6.50;5.90;;;;;;;46.57;15.95;100448.00;5015225;28;20030;-75
2022/07/22 09:24:34;;;;;;;6.63;5.40;;;;;;;45.97;15.62;100449.25;5014830;28;20048;-76
2022/07/22 09:27:00;;;;;;;6.50;5.78;;;;;;;45.08;16.97;100443.28;4983108;28;20026;-75
2022/07/22 09:29:27;;;;;;;9.98;6.28;;;;;;;44.08;18.15;100449.69;5014998;28;20026;-74
2022/07/22 09:31:53;;;;;;;8.75;5.90;;;;;;;43.82;18.14;100434.25;5016439;28;20467;-75
2022/07/22 09:34:31;;;;;;;10.63;5.47;;;;;;;43.91;18.06;100432.88;5015659;28;20383;-75
2022/07/22 09:36:59;;;;;;;6.32;4.78;;;;;;;43.74;17.46;100443.91;5015984;28;20025;-76
2022/07/22 09:39:33;;;;;;;5.80;5.05;;;;;;;43.63;17.45;100442.25;5015143;28;20061;-74
2022/07/22 09:42:01;;;;;;;6.40;5.80;;;;;;;43.35;17.73;100439.53;5005695;28;20026;-73
2022/07/22 09:44:26;;;;;;;8.38;5.88;;;;;;;42.99;18.79;100438.91;4962502;28;20022;-73
2022/07/22 09:46:52;;;;;;;7.40;6.55;;;;;;;42.57;19.38;100445.63;4994584;28;20034;-74
2022/07/22 09:49:36;;;;;;;7.65;5.88;;;;;;;42.08;18.83;100437.06;4994596;28;20069;-73
2022/07/22 09:52:03;;;;;;;8.32;6.40;;;;;;;41.70;19.76;100446.72;5011775;28;20029;-74
2022/07/22 09:54:30;;;;;;;8.05;6.00;;;;;;;41.11;19.71;100441.50;4996814;28;20025;-74
2022/07/22 09:56:57;;;;;;;13.55;6.07;;;;;;;40.38;20.99;100435.75;4997663;28;20084;-73
2022/07/22 09:59:24;;;;;;;9.68;6.60;;;;;;;39.52;21.36;100438.31;5014113;28;20042;-72
2022/07/22 10:02:10;;;;;;;11.15;6.43;;;;;;;38.58;23.14;100430.53;4997714;28;20137;-72
2022/07/22 10:04:39;;;;;;;7.15;5.30;;;;;;;38.23;22.90;100430.75;5012602;28;20033;-72
2022/07/22 10:07:05;;;;;;;7.25;6.55;;;;;;;38.13;22.72;100428.88;4997461;28;20088;-73
2022/07/22 10:09:30;;;;;;;6.75;5.05;;;;;;;38.10;22.95;100420.53;5013573;28;20138;-73
2022/07/22 10:11:56;;;;;;;5.30;4.60;;;;;;;38.03;21.73;100415.78;5014255;28;20061;-73
2022/07/22 10:14:31;;;;;;;10.23;4.97;;;;;;;37.68;22.01;100426.34;5013680;28;20030;-74
2022/07/22 10:16:56;;;;;;;7.75;5.00;;;;;;;37.60;21.30;100425.28;5012838;28;20050;-72
2022/07/22 10:19:22;;;;;;;9.05;5.18;;;;;;;37.54;22.49;100410.88;4997513;28;20046;-73
2022/07/22 10:21:48;;;;;;;8.82;5.28;;;;;;;37.60;22.17;100417.09;5013432;28;20029;-73
2022/07/22 10:24:19;;;;;;;7.10;4.00;;;;;;;37.80;21.74;100420.16;5013711;28;20025;-73
2022/07/22 10:26:56;;;;;;;13.43;5.30;;;;;;;37.95;22.30;100410.28;5014697;28;20461;-72
2022/07/22 10:29:39;;;;;;;5.18;4.40;;;;;;;37.96;21.65;100414.03;4996987;28;20057;-72
2022/07/22 10:32:18;;;;;;;5.32;4.82;;;;;;;37.82;22.66;100401.56;5013326;28;20395;-72
2022/07/22 10:35:09;;;;;;;7.13;4.95;;;;;;;37.29;22.23;100414.31;5014809;28;20044;-73
2022/07/22 10:37:40;;;;;;;10.15;5.07;;;;;;;36.69;23.11;100413.25;5014619;28;20471;-72
2022/07/22 10:40:16;;;;;;;9.65;5.57;;;;;;;36.09;24.60;100408.28;5013475;28;20030;-71
2022/07/22 10:43:00;;;;;;;8.88;5.20;;;;;;;35.74;24.91;100402.94;4996723;28;20125;-72
2022/07/22 10:45:34;;;;;;;8.02;5.55;;;;;;;35.65;25.10;100403.22;5013175;28;20485;-74
2022/07/22 10:48:10;;;;;;;6.50;5.30;;;;;;;35.73;24.75;100406.56;5013135;28;20036;-74
2022/07/22 10:50:44;;;;;;;17.83;7.07;;;;;;;35.76;25.37;100405.22;4996894;28;20411;-73
2022/07/22 10:53:18;;;;;;;8.02;4.82;;;;;;;35.61;24.25;100407.50;4996772;28;20033;-72
2022/07/22 10:56:16;;;;;;;8.90;5.05;;;;;;;35.67;24.61;100404.06;5013384;28;20061;-73
2022/07/22 10:59:08;;;;;;;5.32;4.38;;;;;;;35.80;23.45;100399.44;5013275;28;20021;-74
2022/07/22 11:01:37;;;;;;;7.03;5.30;;;;;;;35.61;25.42;100394.84;5014119;28;20029;-74
2022/07/22 11:04:24;;;;;;;6.03;5.22;;;;;;;35.72;24.55;100393.91;4980528;28;20040;-73
2022/07/22 11:06:52;;;;;;;8.07;4.97;;;;;;;35.73;24.86;100386.50;5013978;28;20069;-73
2022/07/22 11:09:23;;;;;;;5.22;4.45;;;;;;;35.67;24.27;100401.09;4996730;28;20468;-74
2022/07/22 11:11:52;;;;;;;6.50;4.68;;;;;;;35.48;23.81;100399.44;4997018;28;20094;-72
2022/07/22 11:14:30;;;;;;;9.65;4.97;;;;;;;35.48;24.95;100384.56;5014060;28;20072;-73
2022/07/22 11:17:08;;;;;;;22.58;5.75;;;;;;;35.47;24.65;100388.97;5013755;28;20100;-73
2022/07/22 11:19:38;;;;;;;11.32;5.93;;;;;;;35.44;25.10;100381.41;5013189;28;20057;-73
2022/07/22 11:22:08;;;;;;;5.85;5.28;;;;;;;35.38;24.39;100377.34;5012773;28;20044;-74
2022/07/22 11:24:36;;;;;;;8.10;4.72;;;;;;;35.22;24.08;100385.47;5012528;28;20065;-73